createdAt,value
2018-12-18T00:04:49.062Z,16.20
2018-12-18T00:07:28.325Z,18.80
2018-12-18T00:10:08.191Z,19.07
2018-12-18T00:15:18.704Z,18.87
2018-12-18T00:17:47.820Z,19.27
2018-12-18T00:30:40.219Z,20.23
2018-12-18T00:33:13.573Z,19.70
2018-12-18T00:35:42.595Z,21.03
2018-12-18T00:38:11.704Z,20.27
2018-12-18T00:40:40.477Z,18.23
2018-12-18T00:43:09.283Z,21.53
2018-12-18T00:45:38.078Z,20.20
2018-12-18T00:52:04.794Z,19.40
2018-12-18T00:54:35.180Z,21.40
2018-12-18T00:57:19.988Z,21.80
2018-12-18T01:04:11.678Z,24.07
2018-12-18T01:09:39.009Z,24.03
2018-12-18T01:14:52.525Z,24.10
2018-12-18T01:36:45.659Z,21.87
2018-12-18T01:46:54.562Z,20.13
2018-12-18T01:49:55.757Z,19.37
2018-12-18T01:53:02.668Z,21.60
2018-12-18T02:09:52.311Z,23.57
2018-12-18T02:18:59.635Z,23.63
2018-12-18T02:21:27.987Z,19.33
2018-12-18T02:23:56.287Z,18.13
2018-12-18T02:26:24.674Z,19.03
2018-12-18T02:28:53.825Z,20.70
2018-12-18T02:31:23.993Z,19.00
2018-12-18T02:33:57.287Z,19.13
2018-12-18T02:36:26.066Z,19.73
2018-12-18T02:38:54.358Z,18.67
2018-12-18T02:41:22.623Z,19.77
2018-12-18T02:43:52.260Z,20.43
2018-12-18T02:46:20.545Z,21.97
2018-12-18T02:48:48.770Z,21.93
2018-12-18T02:51:17.003Z,21.20
2018-12-18T02:53:45.265Z,19.57
2018-12-18T02:56:13.603Z,18.97
2018-12-18T02:58:41.795Z,20.23
2018-12-18T03:01:10.032Z,17.93
2018-12-18T03:03:39.232Z,17.90
2018-12-18T03:06:41.481Z,16.63
2018-12-18T03:20:02.572Z,16.40
2018-12-18T03:30:38.572Z,15.03
2018-12-18T03:43:15.432Z,13.37
2018-12-18T03:54:42.211Z,11.90
2018-12-18T04:00:13.901Z,11.87
2018-12-18T04:09:09.665Z,12.43
2018-12-18T04:18:41.450Z,13.50
2018-12-18T04:21:46.417Z,13.40
2018-12-18T04:27:28.905Z,14.10
2018-12-18T04:29:59.435Z,14.80
2018-12-18T04:37:26.852Z,12.60
2018-12-18T04:44:43.905Z,13.77
2018-12-18T04:49:54.569Z,13.63
2018-12-18T05:09:35.262Z,12.40
2018-12-18T05:14:55.952Z,13.07
2018-12-18T05:20:15.784Z,12.50
2018-12-18T05:22:44.053Z,13.10
2018-12-18T05:25:12.365Z,12.30
2018-12-18T05:27:40.657Z,12.77
2018-12-18T05:30:09.041Z,13.23
2018-12-18T05:32:37.307Z,14.47
2018-12-18T05:35:05.500Z,13.37
2018-12-18T05:37:34.522Z,12.90
2018-12-18T05:40:02.870Z,12.47
2018-12-18T05:42:33.107Z,13.37
2018-12-18T05:45:03.261Z,12.10
2018-12-18T05:47:33.467Z,12.27
2018-12-18T05:50:02.540Z,13.13
2018-12-18T05:52:30.721Z,11.80
2018-12-18T05:55:00.085Z,11.27
2018-12-18T05:57:28.599Z,12.63
2018-12-18T05:59:56.821Z,12.57
2018-12-18T06:02:25.731Z,12.97
2018-12-18T06:04:55.648Z,12.57
2018-12-18T06:07:24.352Z,13.60
2018-12-18T06:09:52.909Z,12.27
2018-12-18T06:12:21.603Z,12.23
2018-12-18T06:14:49.790Z,11.80
2018-12-18T06:17:17.965Z,12.23
2018-12-18T06:19:46.942Z,13.33
2018-12-18T06:22:15.354Z,12.77
2018-12-18T06:24:43.630Z,12.67
2018-12-18T06:27:11.801Z,13.80
2018-12-18T06:29:40.097Z,12.63
2018-12-18T06:32:08.441Z,13.57
2018-12-18T06:34:36.829Z,12.67
2018-12-18T06:37:05.883Z,13.67
2018-12-18T06:39:34.204Z,14.27
2018-12-18T06:42:03.626Z,14.60
2018-12-18T06:44:32.254Z,16.17
2018-12-18T06:47:00.438Z,15.07
2018-12-18T06:49:28.620Z,16.10
2018-12-18T06:51:56.792Z,16.37
2018-12-18T06:54:26.433Z,14.53
2018-12-18T06:56:54.597Z,13.13
2018-12-18T06:59:22.776Z,14.37
2018-12-18T07:01:51.271Z,13.93
2018-12-18T07:04:19.452Z,12.50
2018-12-18T07:06:47.595Z,12.07
2018-12-18T07:09:15.877Z,12.33
2018-12-18T07:11:44.041Z,13.10
2018-12-18T07:14:12.257Z,12.67
2018-12-18T07:16:40.484Z,15.50
2018-12-18T07:19:08.643Z,13.37
2018-12-18T07:21:36.853Z,12.13
2018-12-18T07:24:05.009Z,11.67
2018-12-18T07:26:33.570Z,11.90
2018-12-18T07:29:01.746Z,12.10
2018-12-18T07:31:29.888Z,10.97
2018-12-18T07:33:58.022Z,10.13
2018-12-18T07:36:26.260Z,11.37
2018-12-18T07:38:54.425Z,12.50
2018-12-18T07:41:22.672Z,11.57
2018-12-18T07:43:53.712Z,12.57
2018-12-18T07:46:21.892Z,13.37
2018-12-18T07:48:50.117Z,13.37
2018-12-18T07:51:18.279Z,14.30
2018-12-18T07:53:46.534Z,15.37
2018-12-18T07:56:14.684Z,13.27
2018-12-18T07:58:42.880Z,14.17
2018-12-18T08:01:11.095Z,13.77
2018-12-18T08:03:40.292Z,10.97
2018-12-18T08:06:08.456Z,15.10
2018-12-18T08:08:36.677Z,19.27
2018-12-18T08:11:04.917Z,17.90
2018-12-18T08:13:33.126Z,13.83
2018-12-18T08:16:01.716Z,14.70
2018-12-18T08:18:29.885Z,14.90
2018-12-18T08:20:58.391Z,15.33
2018-12-18T08:23:27.312Z,14.20
2018-12-18T08:25:55.540Z,13.57
2018-12-18T08:28:23.688Z,12.53
2018-12-18T08:30:51.871Z,11.87
2018-12-18T08:33:20.100Z,11.67
2018-12-18T08:35:48.839Z,11.63
2018-12-18T08:38:16.981Z,11.97
2018-12-18T08:40:45.126Z,12.50
2018-12-18T08:43:13.348Z,13.37
2018-12-18T08:45:41.793Z,12.30
2018-12-18T08:48:10.048Z,13.20
2018-12-18T08:50:38.179Z,14.07
2018-12-18T08:53:06.321Z,15.17
2018-12-18T08:55:34.488Z,15.80
2018-12-18T08:58:02.706Z,16.80
2018-12-18T09:00:30.932Z,18.63
2018-12-18T09:02:59.119Z,18.57
2018-12-18T09:05:27.874Z,18.77
2018-12-18T09:07:56.091Z,19.73
2018-12-18T09:10:24.308Z,21.90
2018-12-18T09:12:52.683Z,22.77
2018-12-18T09:15:27.718Z,25.03
2018-12-18T09:17:55.825Z,25.07
2018-12-18T09:20:24.083Z,25.00
2018-12-18T09:22:52.292Z,25.10
2018-12-18T09:25:20.452Z,26.87
2018-12-18T09:27:48.708Z,29.33
2018-12-18T09:30:16.917Z,27.57
2018-12-18T09:32:45.188Z,30.20
2018-12-18T09:35:13.362Z,29.70
2018-12-18T09:37:43.164Z,32.93
2018-12-18T09:40:11.346Z,33.73
2018-12-18T09:42:44.868Z,33.83
2018-12-18T09:45:13.142Z,34.43
2018-12-18T09:47:41.300Z,37.40
2018-12-18T09:50:09.618Z,38.17
2018-12-18T09:52:37.892Z,40.87
2018-12-18T09:55:06.345Z,44.70
2018-12-18T09:57:39.855Z,39.20
2018-12-18T10:00:08.291Z,38.10
2018-12-18T10:02:36.535Z,37.50
2018-12-18T10:05:05.282Z,37.00
2018-12-18T10:07:33.493Z,37.57
2018-12-18T10:10:01.668Z,31.10
2018-12-18T10:12:35.224Z,31.90
2018-12-18T10:15:03.572Z,33.53
2018-12-18T10:17:31.762Z,29.20
2018-12-18T10:19:59.942Z,23.60
2018-12-18T10:22:28.929Z,23.53
2018-12-18T10:24:58.104Z,23.53
2018-12-18T10:27:26.232Z,18.57
2018-12-18T10:29:54.403Z,19.93
2018-12-18T10:32:22.693Z,19.47
2018-12-18T10:34:51.771Z,16.80
2018-12-18T10:37:20.037Z,17.57
2018-12-18T10:39:48.228Z,16.87
2018-12-18T10:42:16.494Z,15.87
2018-12-18T10:44:44.773Z,15.70
2018-12-18T10:47:13.049Z,14.97
2018-12-18T10:49:42.219Z,14.00
2018-12-18T10:52:10.380Z,12.73
2018-12-18T10:54:38.621Z,12.20
2018-12-18T10:57:07.207Z,10.30
2018-12-18T10:59:35.351Z,10.97
2018-12-18T11:02:04.607Z,10.90
2018-12-18T11:04:33.049Z,11.43
2018-12-18T11:07:01.228Z,11.13
2018-12-18T11:09:29.524Z,10.93
2018-12-18T11:11:57.695Z,9.70
2018-12-18T11:14:25.860Z,10.77
2018-12-18T11:16:54.893Z,10.30
2018-12-18T11:19:23.143Z,10.30
2018-12-18T11:21:51.430Z,10.03
2018-12-18T11:24:19.652Z,9.30
2018-12-18T11:26:49.003Z,9.60
2018-12-18T11:29:17.197Z,9.43
2018-12-18T11:31:47.377Z,9.60
2018-12-18T11:34:15.572Z,7.87
2018-12-18T11:36:43.805Z,7.23
2018-12-18T11:39:12.029Z,7.87
2018-12-18T11:41:40.219Z,7.63
2018-12-18T11:44:08.508Z,7.90
2018-12-18T11:46:36.705Z,7.87
2018-12-18T11:49:04.937Z,12.10
2018-12-18T11:51:33.169Z,13.50
2018-12-18T11:54:02.673Z,14.80
2018-12-18T11:56:30.873Z,15.23
2018-12-18T11:58:59.188Z,15.17
2018-12-18T12:01:28.251Z,15.27
2018-12-18T12:03:56.464Z,14.10
2018-12-18T12:06:24.640Z,14.83
2018-12-18T12:08:52.848Z,13.57
2018-12-18T12:11:21.238Z,13.27
2018-12-18T12:13:49.519Z,12.37
2018-12-18T12:16:18.222Z,9.30
2018-12-18T12:18:46.694Z,9.53
2018-12-18T12:21:15.124Z,8.77
2018-12-18T12:23:43.468Z,9.00
2018-12-18T12:26:16.949Z,8.53
2018-12-18T12:28:45.612Z,9.00
2018-12-18T12:31:14.136Z,10.17
2018-12-18T12:33:42.902Z,11.07
2018-12-18T12:36:11.512Z,11.13
2018-12-18T12:38:39.992Z,12.77
2018-12-18T12:41:11.523Z,12.53
2018-12-18T12:43:39.923Z,14.07
2018-12-18T12:46:08.449Z,15.40
2018-12-18T12:48:41.965Z,28.40
2018-12-18T12:51:10.357Z,14.67
2018-12-18T12:53:38.932Z,12.63
2018-12-18T12:56:07.107Z,31.33
2018-12-18T12:58:35.257Z,30.87
2018-12-18T13:01:03.520Z,37.07
2018-12-18T13:03:31.785Z,23.73
2018-12-18T13:06:00.021Z,28.30
2018-12-18T13:08:28.178Z,18.27
2018-12-18T13:10:57.307Z,20.63
2018-12-18T13:13:25.586Z,15.13
2018-12-18T13:15:53.749Z,17.83
2018-12-18T13:18:22.832Z,18.00
2018-12-18T13:20:50.974Z,17.37
2018-12-18T13:23:19.185Z,20.33
2018-12-18T13:25:47.394Z,16.93
2018-12-18T13:28:15.605Z,17.57
2018-12-18T13:30:43.751Z,20.30
2018-12-18T13:33:11.927Z,18.67
2018-12-18T13:35:40.092Z,16.97
2018-12-18T13:38:08.600Z,16.67
2018-12-18T13:40:36.861Z,15.13
2018-12-18T13:43:05.019Z,22.20
2018-12-18T13:45:33.180Z,20.07
2018-12-18T13:48:01.371Z,19.57
2018-12-18T13:50:30.272Z,14.87
2018-12-18T13:52:58.441Z,33.27
2018-12-18T13:55:26.987Z,28.20
2018-12-18T13:57:55.218Z,20.03
2018-12-18T14:00:24.178Z,22.03
2018-12-18T14:02:52.359Z,16.67
2018-12-18T14:05:20.523Z,17.47
2018-12-18T14:07:48.709Z,16.90
2018-12-18T14:10:17.031Z,20.37
2018-12-18T14:12:49.478Z,17.77
2018-12-18T14:15:17.933Z,18.93
2018-12-18T14:17:46.141Z,14.40
2018-12-18T14:20:14.454Z,16.40
2018-12-18T14:22:42.740Z,18.57
2018-12-18T14:25:11.080Z,21.97
2018-12-18T14:27:39.237Z,25.60
2018-12-18T14:30:07.595Z,22.57
2018-12-18T14:32:35.748Z,24.80
2018-12-18T14:35:04.151Z,19.33
2018-12-18T14:37:32.312Z,17.07
2018-12-18T14:40:00.444Z,15.30
2018-12-18T14:42:28.646Z,15.20
2018-12-18T14:44:56.780Z,12.33
2018-12-18T14:47:39.584Z,11.37
2018-12-18T14:50:07.964Z,14.47
2018-12-18T14:52:36.424Z,12.47
2018-12-18T14:55:04.976Z,14.07
2018-12-18T14:57:33.117Z,11.83
2018-12-18T15:00:01.279Z,15.57
2018-12-18T15:02:29.561Z,23.53
2018-12-18T15:04:57.721Z,44.67
2018-12-18T15:07:25.877Z,20.67
2018-12-18T15:09:54.048Z,12.20
2018-12-18T15:12:22.180Z,20.63
2018-12-18T15:14:50.439Z,17.67
2018-12-18T15:17:18.741Z,18.43
2018-12-18T15:19:47.952Z,26.03
2018-12-18T15:22:16.232Z,21.80
2018-12-18T15:24:44.432Z,16.77
2018-12-18T15:27:12.737Z,14.10
2018-12-18T15:29:41.192Z,12.67
2018-12-18T15:32:09.391Z,15.07
2018-12-18T15:34:37.552Z,12.17
2018-12-18T15:37:09.551Z,10.33
2018-12-18T15:39:35.917Z,24.83
2018-12-18T15:42:04.145Z,12.40
2018-12-18T15:44:34.921Z,16.17
2018-12-18T15:47:05.635Z,12.37
2018-12-18T15:49:36.499Z,13.67
2018-12-18T15:52:07.473Z,11.27
2018-12-18T15:54:38.367Z,10.97
2018-12-18T15:57:08.891Z,10.07
2018-12-18T15:59:40.216Z,14.27
2018-12-18T16:02:09.241Z,14.87
2018-12-18T16:04:37.401Z,10.40
2018-12-18T16:07:06.387Z,11.87
2018-12-18T16:09:34.539Z,10.97
2018-12-18T16:12:02.783Z,10.20
2018-12-18T16:14:31.915Z,10.27
2018-12-18T16:17:00.158Z,10.23
2018-12-18T16:19:28.517Z,10.73
2018-12-18T16:21:56.929Z,11.77
2018-12-18T16:24:25.206Z,10.77
2018-12-18T16:26:53.402Z,11.83
2018-12-18T16:29:21.632Z,11.90
2018-12-18T16:31:49.842Z,9.93
2018-12-18T16:34:18.000Z,10.43
2018-12-18T16:36:46.172Z,10.43
2018-12-18T16:39:14.317Z,9.77
2018-12-18T16:41:42.471Z,11.77
2018-12-18T16:44:10.644Z,10.47
2018-12-18T16:46:39.378Z,9.33
2018-12-18T16:49:07.540Z,9.70
2018-12-18T16:51:36.009Z,8.33
2018-12-18T16:54:04.516Z,10.27
2018-12-18T16:56:32.875Z,10.80
2018-12-18T16:59:01.337Z,9.77
2018-12-18T17:01:31.271Z,9.53
2018-12-18T17:03:59.442Z,11.00
2018-12-18T17:06:27.742Z,10.60
2018-12-18T17:08:56.008Z,10.80
2018-12-18T17:11:24.167Z,10.70
2018-12-18T17:13:52.328Z,11.10
2018-12-18T17:16:20.577Z,11.17
2018-12-18T17:18:52.323Z,12.03
2018-12-18T17:21:20.552Z,13.17
2018-12-18T17:23:49.072Z,30.07
2018-12-18T17:26:17.192Z,29.17
2018-12-18T17:28:45.360Z,26.53
2018-12-18T17:31:13.819Z,18.93
2018-12-18T17:33:41.974Z,17.17
2018-12-18T17:36:10.148Z,13.23
2018-12-18T17:38:38.320Z,12.80
2018-12-18T17:41:06.502Z,12.87
2018-12-18T17:43:35.926Z,14.60
2018-12-18T17:46:05.543Z,15.50
2018-12-18T17:48:34.456Z,12.93
2018-12-18T17:51:02.662Z,14.00
2018-12-18T17:53:30.868Z,14.30
2018-12-18T17:55:59.080Z,32.40
2018-12-18T17:58:27.224Z,27.87
2018-12-18T18:00:55.368Z,40.43
2018-12-18T18:03:23.596Z,21.40
2018-12-18T18:05:51.819Z,15.33
2018-12-18T18:08:19.980Z,19.70
2018-12-18T18:10:49.059Z,17.13
2018-12-18T18:13:18.024Z,27.13
2018-12-18T18:15:47.005Z,25.50
2018-12-18T18:18:15.147Z,22.73
2018-12-18T18:20:43.306Z,20.47
2018-12-18T18:23:11.686Z,19.23
2018-12-18T18:25:39.876Z,17.70
2018-12-18T18:28:08.118Z,24.10
2018-12-18T18:30:36.606Z,27.97
2018-12-18T18:33:05.320Z,23.07
2018-12-18T18:35:33.502Z,22.97
2018-12-18T18:38:02.531Z,23.50
2018-12-18T18:40:30.664Z,23.03
2018-12-18T18:42:59.231Z,22.27
2018-12-18T18:45:27.384Z,23.13
2018-12-18T18:47:55.524Z,19.23
2018-12-18T18:50:23.676Z,16.17
2018-12-18T18:52:51.854Z,16.83
2018-12-18T18:55:20.100Z,16.20
2018-12-18T18:57:50.225Z,28.03
2018-12-18T19:00:18.403Z,16.90
2018-12-18T19:02:46.651Z,16.40
2018-12-18T19:05:14.909Z,14.40
2018-12-18T19:07:43.242Z,15.07
2018-12-18T19:10:11.405Z,22.43
2018-12-18T19:12:39.631Z,12.83
2018-12-18T19:15:07.779Z,13.07
2018-12-18T19:17:35.951Z,12.23
2018-12-18T19:20:04.641Z,12.93
2018-12-18T19:22:33.628Z,14.90
2018-12-18T19:25:01.796Z,14.00
2018-12-18T19:27:30.154Z,13.10
2018-12-18T19:29:58.337Z,12.27
2018-12-18T19:32:26.589Z,11.70
2018-12-18T19:34:54.728Z,12.70
2018-12-18T19:37:23.052Z,12.63
2018-12-18T19:39:51.398Z,16.47
2018-12-18T19:42:20.087Z,14.20
2018-12-18T19:44:49.873Z,13.23
2018-12-18T19:47:18.056Z,15.07
2018-12-18T19:49:46.967Z,12.83
2018-12-18T19:52:16.090Z,12.77
2018-12-18T19:54:45.329Z,11.27
2018-12-18T19:57:13.620Z,11.03
2018-12-18T19:59:42.026Z,11.13
2018-12-18T20:02:10.328Z,11.40
2018-12-18T20:04:38.547Z,13.20
2018-12-18T20:07:06.701Z,11.87
2018-12-18T20:09:34.868Z,11.33
2018-12-18T20:12:03.079Z,10.90
2018-12-18T20:14:31.296Z,10.57
2018-12-18T20:16:59.873Z,11.20
2018-12-18T20:22:12.850Z,9.57
2018-12-18T20:24:41.371Z,10.40
2018-12-18T20:27:09.844Z,9.97
2018-12-18T20:29:38.295Z,11.53
2018-12-18T20:32:06.870Z,12.00
2018-12-18T20:34:35.028Z,14.17
2018-12-18T20:37:04.208Z,18.90
2018-12-18T20:39:32.581Z,15.70
2018-12-18T20:42:01.533Z,13.47
2018-12-18T20:44:29.764Z,15.33
2018-12-18T20:46:57.938Z,14.77
2018-12-18T20:49:26.205Z,16.13
2018-12-18T20:51:54.464Z,14.50
2018-12-18T20:54:23.108Z,12.63
2018-12-18T20:56:51.276Z,12.97
2018-12-18T20:59:19.708Z,12.80
2018-12-18T21:01:48.056Z,15.10
2018-12-18T21:04:16.289Z,13.57
2018-12-18T21:06:44.612Z,14.23
2018-12-18T21:09:13.892Z,15.07
2018-12-18T21:11:42.819Z,16.07
2018-12-18T21:14:11.027Z,14.73
2018-12-18T21:16:39.324Z,15.03
2018-12-18T21:19:07.528Z,14.77
2018-12-18T21:21:35.692Z,14.73
2018-12-18T21:24:04.089Z,14.77
2018-12-18T21:26:32.259Z,15.17
2018-12-18T21:29:01.508Z,16.43
2018-12-18T21:31:29.797Z,16.57
2018-12-18T21:33:58.076Z,16.57
2018-12-18T21:36:26.420Z,17.43
2018-12-18T21:38:54.653Z,16.50
2018-12-18T21:41:22.855Z,16.70
2018-12-18T21:43:52.044Z,17.73
2018-12-18T21:46:20.280Z,16.53
2018-12-18T21:48:48.495Z,17.00
2018-12-18T21:51:16.990Z,18.07
2018-12-18T21:53:46.034Z,17.87
2018-12-18T21:56:14.289Z,19.63
2018-12-18T21:58:42.481Z,19.33
2018-12-18T22:01:11.148Z,18.37
2018-12-18T22:03:39.311Z,19.93
2018-12-18T22:06:08.460Z,18.60
2018-12-18T22:08:36.904Z,19.80
2018-12-18T22:11:05.393Z,20.80
2018-12-18T22:13:34.513Z,21.00
2018-12-18T22:16:02.728Z,19.47
2018-12-18T22:18:31.018Z,21.13
2018-12-18T22:20:59.232Z,19.43
2018-12-18T22:23:28.490Z,20.13
2018-12-18T22:25:57.390Z,20.33
2018-12-18T22:28:25.728Z,19.80
2018-12-18T22:30:53.902Z,22.03
2018-12-18T22:33:22.120Z,21.70
2018-12-18T22:35:53.080Z,22.33
2018-12-18T22:38:21.394Z,21.80
2018-12-18T22:40:49.587Z,22.77
2018-12-18T22:43:18.507Z,21.70
2018-12-18T22:45:48.454Z,23.67
2018-12-18T22:48:16.667Z,22.63
2018-12-18T22:50:44.943Z,23.93
2018-12-18T22:53:14.475Z,24.63
2018-12-18T22:55:50.667Z,24.43
2018-12-18T22:58:28.228Z,25.37
2018-12-18T23:01:10.859Z,25.60
2018-12-18T23:03:39.232Z,25.70
2018-12-18T23:06:07.421Z,25.13
2018-12-18T23:08:35.680Z,28.23
2018-12-18T23:11:03.915Z,25.53
2018-12-18T23:13:32.092Z,26.30
2018-12-18T23:16:00.236Z,24.57
2018-12-18T23:18:28.391Z,27.53
2018-12-18T23:20:56.742Z,26.40
2018-12-18T23:23:25.961Z,25.63
2018-12-18T23:25:54.755Z,26.43
2018-12-18T23:28:22.879Z,28.57
2018-12-18T23:30:51.912Z,26.33
2018-12-18T23:33:20.138Z,28.23
2018-12-18T23:36:02.822Z,30.97
2018-12-18T23:38:40.747Z,26.67
2018-12-18T23:41:17.686Z,27.30
2018-12-18T23:44:01.649Z,27.33
2018-12-18T23:46:31.368Z,25.73
2018-12-18T23:48:59.556Z,27.07
2018-12-18T23:51:27.799Z,26.43
2018-12-18T23:54:07.288Z,25.57
2018-12-18T23:56:36.652Z,26.13
2018-12-18T23:59:14.430Z,26.23
